sensor_id;sensor_type;location;lat;lon;timestamp;pressure;altitude;pressure_sealevel;temperature;humidity
71735;BME280;59577;52.122;5.406;2024-03-23T00:53:16;101124.66;;;7.49;100.00
71735;BME280;59577;52.122;5.406;2024-03-23T00:55:41;101124.19;;;7.47;100.00
71735;BME280;59577;52.122;5.406;2024-03-23T00:58:08;101120.72;;;7.46;100.00
71735;BME280;59577;52.122;5.406;2024-03-23T01:00:33;101118.81;;;7.47;100.00
71735;BME280;59577;52.122;5.406;2024-03-23T01:02:59;101122.63;;;7.46;100.00
71735;BME280;59577;52.122;5.406;2024-03-23T01:05:24;101110.91;;;7.42;100.00
71735;BME280;59577;52.122;5.406;2024-03-23T01:07:50;101116.94;;;7.39;100.00
71735;BME280;59577;52.122;5.406;2024-03-23T01:10:15;101114.91;;;7.36;100.00
71735;BME280;59577;52.122;5.406;2024-03-23T01:12:41;101113.31;;;7.34;100.00
71735;BME280;59577;52.122;5.406;2024-03-23T01:15:06;101109.03;;;7.33;100.00
71735;BME280;59577;52.122;5.406;2024-03-23T01:17:32;101105.56;;;7.33;100.00
71735;BME280;59577;52.122;5.406;2024-03-23T01:19:57;101096.69;;;7.32;100.00
71735;BME280;59577;52.122;5.406;2024-03-23T01:22:23;101098.91;;;7.30;100.00
71735;BME280;59577;52.122;5.406;2024-03-23T01:24:48;101096.22;;;7.30;100.00
71735;BME280;59577;52.122;5.406;2024-03-23T01:27:14;101093.84;;;7.29;100.00
71735;BME280;59577;52.122;5.406;2024-03-23T01:29:40;101088.47;;;7.29;100.00
71735;BME280;59577;52.122;5.406;2024-03-23T01:32:05;101085.13;;;7.32;100.00
71735;BME280;59577;52.122;5.406;2024-03-23T01:34:32;101083.22;;;7.32;100.00
71735;BME280;59577;52.122;5.406;2024-03-23T01:36:58;101084.78;;;7.33;100.00
71735;BME280;59577;52.122;5.406;2024-03-23T01:39:24;101067.84;;;7.33;100.00
71735;BME280;59577;52.122;5.406;2024-03-23T01:41:50;101068.97;;;7.32;100.00
71735;BME280;59577;52.122;5.406;2024-03-23T01:44:16;101064.38;;;7.32;100.00
71735;BME280;59577;52.122;5.406;2024-03-23T01:46:43;101063.09;;;7.30;100.00
71735;BME280;59577;52.122;5.406;2024-03-23T01:49:09;101055.88;;;7.22;100.00
71735;BME280;59577;52.122;5.406;2024-03-23T01:51:36;101058.75;;;7.17;100.00
71735;BME280;59577;52.122;5.406;2024-03-23T01:54:02;101056.56;;;7.10;100.00
71735;BME280;59577;52.122;5.406;2024-03-23T01:56:31;101055.13;;;7.04;100.00
71735;BME280;59577;52.122;5.406;2024-03-23T01:58:59;101053.59;;;6.94;100.00
71735;BME280;59577;52.122;5.406;2024-03-23T02:01:26;101047.59;;;6.88;100.00
71735;BME280;59577;52.122;5.406;2024-03-23T02:03:51;101056.94;;;6.82;100.00
71735;BME280;59577;52.122;5.406;2024-03-23T02:06:17;101055.53;;;6.76;100.00
71735;BME280;59577;52.122;5.406;2024-03-23T02:08:44;101056.81;;;6.70;100.00
71735;BME280;59577;52.122;5.406;2024-03-23T02:11:09;101050.47;;;6.66;100.00
71735;BME280;59577;52.122;5.406;2024-03-23T02:13:35;101058.09;;;6.64;100.00
71735;BME280;59577;52.122;5.406;2024-03-23T02:16:01;101057.94;;;6.60;100.00
71735;BME280;59577;52.122;5.406;2024-03-23T02:18:26;101055.25;;;6.60;100.00
71735;BME280;59577;52.122;5.406;2024-03-23T02:20:52;101052.56;;;6.60;100.00
71735;BME280;59577;52.122;5.406;2024-03-23T02:23:17;101056.34;;;6.59;100.00
71735;BME280;59577;52.122;5.406;2024-03-23T02:25:44;101051.63;;;6.56;100.00
71735;BME280;59577;52.122;5.406;2024-03-23T02:28:09;101049.56;;;6.53;100.00
71735;BME280;59577;52.122;5.406;2024-03-23T02:30:35;101034.69;;;6.47;100.00
71735;BME280;59577;52.122;5.406;2024-03-23T02:33:01;101039.13;;;6.43;100.00
71735;BME280;59577;52.122;5.406;2024-03-23T02:35:26;101031.22;;;6.37;100.00
71735;BME280;59577;52.122;5.406;2024-03-23T02:37:52;101031.88;;;6.34;100.00
71735;BME280;59577;52.122;5.406;2024-03-23T02:40:19;101032.03;;;6.29;100.00
71735;BME280;59577;52.122;5.406;2024-03-23T02:42:46;101043.75;;;6.25;100.00
71735;BME280;59577;52.122;5.406;2024-03-23T02:45:11;101036.31;;;6.21;100.00
71735;BME280;59577;52.122;5.406;2024-03-23T02:47:37;101038.34;;;6.16;100.00
71735;BME280;59577;52.122;5.406;2024-03-23T02:50:03;101033.94;;;6.11;100.00
71735;BME280;59577;52.122;5.406;2024-03-23T02:52:29;101036.47;;;6.08;100.00
71735;BME280;59577;52.122;5.406;2024-03-23T02:54:55;101036.94;;;6.01;100.00
71735;BME280;59577;52.122;5.406;2024-03-23T02:57:20;101040.56;;;5.96;100.00
71735;BME280;59577;52.122;5.406;2024-03-23T02:59:46;101037.38;;;5.94;100.00
71735;BME280;59577;52.122;5.406;2024-03-23T03:02:13;101038.66;;;5.97;100.00
71735;BME280;59577;52.122;5.406;2024-03-23T03:04:39;101032.19;;;5.98;100.00
71735;BME280;59577;52.122;5.406;2024-03-23T03:07:04;101029.03;;;5.96;100.00
71735;BME280;59577;52.122;5.406;2024-03-23T03:09:30;101031.41;;;5.97;100.00
71735;BME280;59577;52.122;5.406;2024-03-23T03:11:55;101032.00;;;5.94;100.00
71735;BME280;59577;52.122;5.406;2024-03-23T03:14:21;101028.38;;;5.90;100.00
71735;BME280;59577;52.122;5.406;2024-03-23T03:16:46;101037.06;;;5.87;100.00
71735;BME280;59577;52.122;5.406;2024-03-23T03:19:12;101029.13;;;5.82;100.00
71735;BME280;59577;52.122;5.406;2024-03-23T03:21:37;101030.06;;;5.77;100.00
71735;BME280;59577;52.122;5.406;2024-03-23T03:24:05;101033.22;;;5.71;100.00
71735;BME280;59577;52.122;5.406;2024-03-23T03:26:32;101034.66;;;5.68;100.00
71735;BME280;59577;52.122;5.406;2024-03-23T03:28:57;101033.50;;;5.60;100.00
71735;BME280;59577;52.122;5.406;2024-03-23T03:31:23;101027.19;;;5.56;100.00
71735;BME280;59577;52.122;5.406;2024-03-23T03:33:49;101028.44;;;5.50;100.00
71735;BME280;59577;52.122;5.406;2024-03-23T03:36:15;101025.25;;;5.39;100.00
71735;BME280;59577;52.122;5.406;2024-03-23T03:38:42;101020.16;;;5.29;100.00
71735;BME280;59577;52.122;5.406;2024-03-23T03:41:07;101016.06;;;5.23;100.00
71735;BME280;59577;52.122;5.406;2024-03-23T03:43:33;101020.13;;;5.20;100.00
71735;BME280;59577;52.122;5.406;2024-03-23T03:46:00;101023.00;;;5.24;100.00
71735;BME280;59577;52.122;5.406;2024-03-23T03:48:26;101015.09;;;5.27;100.00
71735;BME280;59577;52.122;5.406;2024-03-23T03:50:52;101014.78;;;5.29;100.00
71735;BME280;59577;52.122;5.406;2024-03-23T03:53:19;101000.91;;;5.27;100.00
71735;BME280;59577;52.122;5.406;2024-03-23T03:55:44;101006.75;;;5.29;100.00
71735;BME280;59577;52.122;5.406;2024-03-23T03:58:10;101002.47;;;5.19;100.00
71735;BME280;59577;52.122;5.406;2024-03-23T04:00:36;101003.84;;;5.08;100.00
71735;BME280;59577;52.122;5.406;2024-03-23T04:03:02;101007.63;;;5.07;100.00
71735;BME280;59577;52.122;5.406;2024-03-23T04:05:27;100998.00;;;5.06;100.00
71735;BME280;59577;52.122;5.406;2024-03-23T04:07:53;101006.97;;;5.01;100.00
71735;BME280;59577;52.122;5.406;2024-03-23T04:10:19;100999.81;;;4.88;100.00
71735;BME280;59577;52.122;5.406;2024-03-23T04:12:45;101002.81;;;4.86;100.00
71735;BME280;59577;52.122;5.406;2024-03-23T04:15:11;101004.03;;;4.80;100.00
71735;BME280;59577;52.122;5.406;2024-03-23T04:17:37;101000.88;;;4.78;100.00
71735;BME280;59577;52.122;5.406;2024-03-23T04:20:03;100998.94;;;4.70;100.00
71735;BME280;59577;52.122;5.406;2024-03-23T04:22:31;100994.69;;;4.69;100.00
71735;BME280;59577;52.122;5.406;2024-03-23T04:24:57;100990.72;;;4.66;100.00
71735;BME280;59577;52.122;5.406;2024-03-23T04:27:23;100986.94;;;4.67;100.00
71735;BME280;59577;52.122;5.406;2024-03-23T04:29:49;100990.72;;;4.66;100.00
71735;BME280;59577;52.122;5.406;2024-03-23T04:32:15;100991.50;;;4.67;100.00
71735;BME280;59577;52.122;5.406;2024-03-23T04:34:42;100991.19;;;4.68;100.00
71735;BME280;59577;52.122;5.406;2024-03-23T04:37:08;100994.03;;;4.72;100.00
71735;BME280;59577;52.122;5.406;2024-03-23T04:39:35;100987.00;;;4.76;100.00
71735;BME280;59577;52.122;5.406;2024-03-23T04:42:02;100984.19;;;4.81;100.00
71735;BME280;59577;52.122;5.406;2024-03-23T04:44:28;100986.69;;;4.78;100.00
71735;BME280;59577;52.122;5.406;2024-03-23T04:46:53;100996.91;;;4.76;100.00
71735;BME280;59577;52.122;5.406;2024-03-23T04:49:19;100997.03;;;4.70;100.00
71735;BME280;59577;52.122;5.406;2024-03-23T04:51:44;100997.03;;;4.70;100.00
71735;BME280;59577;52.122;5.406;2024-03-23T04:54:15;100992.19;;;4.73;100.00
71735;BME280;59577;52.122;5.406;2024-03-23T04:56:40;100992.63;;;4.66;100.00
71735;BME280;59577;52.122;5.406;2024-03-23T04:59:06;100987.06;;;4.62;100.00
71735;BME280;59577;52.122;5.406;2024-03-23T05:01:32;100980.72;;;4.58;100.00
71735;BME280;59577;52.122;5.406;2024-03-23T05:03:58;100990.66;;;4.58;100.00
71735;BME280;59577;52.122;5.406;2024-03-23T05:06:24;100990.19;;;4.56;100.00
71735;BME280;59577;52.122;5.406;2024-03-23T05:08:53;100987.63;;;4.50;100.00
71735;BME280;59577;52.122;5.406;2024-03-23T05:11:18;100994.38;;;4.48;100.00
71735;BME280;59577;52.122;5.406;2024-03-23T05:13:45;100990.75;;;4.44;100.00
71735;BME280;59577;52.122;5.406;2024-03-23T05:16:10;100989.47;;;4.41;100.00
71735;BME280;59577;52.122;5.406;2024-03-23T05:18:36;100983.59;;;4.39;100.00
71735;BME280;59577;52.122;5.406;2024-03-23T05:21:01;100987.09;;;4.40;100.00
71735;BME280;59577;52.122;5.406;2024-03-23T05:23:28;100990.25;;;4.42;100.00
71735;BME280;59577;52.122;5.406;2024-03-23T05:25:54;100989.97;;;4.43;100.00
71735;BME280;59577;52.122;5.406;2024-03-23T05:28:22;100997.38;;;4.46;100.00
71735;BME280;59577;52.122;5.406;2024-03-23T05:30:52;100989.84;;;4.48;100.00
71735;BME280;59577;52.122;5.406;2024-03-23T05:33:21;100992.81;;;4.47;100.00
71735;BME280;59577;52.122;5.406;2024-03-23T05:35:56;100996.59;;;4.46;100.00
71735;BME280;59577;52.122;5.406;2024-03-23T05:38:21;100995.63;;;4.42;100.00
71735;BME280;59577;52.122;5.406;2024-03-23T05:40:57;100996.09;;;4.44;100.00
71735;BME280;59577;52.122;5.406;2024-03-23T05:43:23;101000.84;;;4.47;100.00
71735;BME280;59577;52.122;5.406;2024-03-23T05:45:59;100993.94;;;4.55;100.00
71735;BME280;59577;52.122;5.406;2024-03-23T05:48:26;100996.06;;;4.66;100.00
71735;BME280;59577;52.122;5.406;2024-03-23T05:50:52;100998.03;;;4.75;100.00
71735;BME280;59577;52.122;5.406;2024-03-23T05:53:19;100987.63;;;4.82;100.00
71735;BME280;59577;52.122;5.406;2024-03-23T05:55:48;100985.44;;;4.84;100.00
71735;BME280;59577;52.122;5.406;2024-03-23T05:58:17;100976.31;;;4.85;100.00
71735;BME280;59577;52.122;5.406;2024-03-23T06:00:44;100977.44;;;4.93;100.00
71735;BME280;59577;52.122;5.406;2024-03-23T06:03:10;100978.72;;;4.95;100.00
71735;BME280;59577;52.122;5.406;2024-03-23T06:05:37;100975.84;;;4.92;100.00
71735;BME280;59577;52.122;5.406;2024-03-23T06:08:03;100977.09;;;4.85;100.00
71735;BME280;59577;52.122;5.406;2024-03-23T06:10:28;100983.88;;;4.83;100.00
71735;BME280;59577;52.122;5.406;2024-03-23T06:12:54;100976.16;;;4.90;100.00
71735;BME280;59577;52.122;5.406;2024-03-23T06:15:19;100985.47;;;4.93;100.00
71735;BME280;59577;52.122;5.406;2024-03-23T06:17:45;100990.22;;;4.96;100.00
71735;BME280;59577;52.122;5.406;2024-03-23T06:20:12;100990.06;;;4.92;100.00
71735;BME280;59577;52.122;5.406;2024-03-23T06:22:38;100986.09;;;4.89;100.00
71735;BME280;59577;52.122;5.406;2024-03-23T06:25:04;100985.78;;;4.91;100.00
71735;BME280;59577;52.122;5.406;2024-03-23T06:27:29;100978.22;;;4.93;100.00
71735;BME280;59577;52.122;5.406;2024-03-23T06:29:55;100971.91;;;4.98;100.00
71735;BME280;59577;52.122;5.406;2024-03-23T06:32:21;100964.84;;;5.77;100.00
71735;BME280;59577;52.122;5.406;2024-03-23T06:34:46;100967.81;;;6.92;100.00
71735;BME280;59577;52.122;5.406;2024-03-23T06:37:12;100969.78;;;6.66;100.00
71735;BME280;59577;52.122;5.406;2024-03-23T06:39:38;100963.50;;;6.53;100.00
71735;BME280;59577;52.122;5.406;2024-03-23T06:42:04;100971.44;;;6.40;100.00
71735;BME280;59577;52.122;5.406;2024-03-23T06:44:30;100973.34;;;6.40;100.00
71735;BME280;59577;52.122;5.406;2024-03-23T06:46:56;100967.03;;;6.83;100.00
71735;BME280;59577;52.122;5.406;2024-03-23T06:49:22;100969.97;;;7.59;100.00
71735;BME280;59577;52.122;5.406;2024-03-23T06:51:48;100965.66;;;7.37;100.00
71735;BME280;59577;52.122;5.406;2024-03-23T06:54:13;100967.03;;;7.22;100.00
71735;BME280;59577;52.122;5.406;2024-03-23T06:56:39;100972.34;;;7.60;100.00
71735;BME280;59577;52.122;5.406;2024-03-23T06:59:04;100964.13;;;9.27;100.00
71735;BME280;59577;52.122;5.406;2024-03-23T07:01:30;100966.47;;;13.24;100.00
71735;BME280;59577;52.122;5.406;2024-03-23T07:03:55;100956.50;;;16.14;93.59
71735;BME280;59577;52.122;5.406;2024-03-23T07:06:21;100965.00;;;18.48;78.71
71735;BME280;59577;52.122;5.406;2024-03-23T07:08:47;100961.09;;;17.68;71.98
71735;BME280;59577;52.122;5.406;2024-03-23T07:11:18;100959.81;;;18.01;71.57
71735;BME280;59577;52.122;5.406;2024-03-23T07:13:44;100951.19;;;20.07;64.04
71735;BME280;59577;52.122;5.406;2024-03-23T07:16:09;100950.00;;;20.59;61.83
71735;BME280;59577;52.122;5.406;2024-03-23T07:18:35;100959.47;;;21.49;57.68
71735;BME280;59577;52.122;5.406;2024-03-23T07:21:00;100955.56;;;22.03;54.34
71735;BME280;59577;52.122;5.406;2024-03-23T07:23:27;100955.00;;;21.92;56.72
71735;BME280;59577;52.122;5.406;2024-03-23T07:26:02;100950.78;;;22.73;49.26
71735;BME280;59577;52.122;5.406;2024-03-23T07:28:32;100961.84;;;23.61;47.66
71735;BME280;59577;52.122;5.406;2024-03-23T07:31:06;100949.19;;;24.15;45.18
71735;BME280;59577;52.122;5.406;2024-03-23T07:33:32;100956.94;;;23.81;43.16
71735;BME280;59577;52.122;5.406;2024-03-23T07:35:58;100963.94;;;22.16;46.04
71735;BME280;59577;52.122;5.406;2024-03-23T07:38:26;100955.63;;;20.52;46.97
71735;BME280;59577;52.122;5.406;2024-03-23T07:40:52;100949.91;;;21.74;50.58
71735;BME280;59577;52.122;5.406;2024-03-23T07:43:22;100961.16;;;22.00;49.19
71735;BME280;59577;52.122;5.406;2024-03-23T07:45:53;100948.78;;;19.48;51.83
71735;BME280;59577;52.122;5.406;2024-03-23T07:48:21;100949.59;;;18.61;51.67
71735;BME280;59577;52.122;5.406;2024-03-23T07:51:09;100950.25;;;19.90;51.76
71735;BME280;59577;52.122;5.406;2024-03-23T07:53:36;100954.00;;;21.46;51.53
71735;BME280;59577;52.122;5.406;2024-03-23T07:56:08;100956.34;;;21.03;50.71
71735;BME280;59577;52.122;5.406;2024-03-23T07:58:36;100951.38;;;19.93;53.54
71735;BME280;59577;52.122;5.406;2024-03-23T08:01:05;100954.47;;;18.39;53.92
71735;BME280;59577;52.122;5.406;2024-03-23T08:03:33;100959.88;;;19.71;52.95
71735;BME280;59577;52.122;5.406;2024-03-23T08:06:27;100957.97;;;19.99;52.56
71735;BME280;59577;52.122;5.406;2024-03-23T08:08:54;100957.94;;;17.88;54.70
71735;BME280;59577;52.122;5.406;2024-03-23T08:11:27;100953.44;;;16.41;60.75
71735;BME280;59577;52.122;5.406;2024-03-23T08:13:54;100940.38;;;19.62;61.82
71735;BME280;59577;52.122;5.406;2024-03-23T08:16:19;100937.59;;;18.93;56.80
71735;BME280;59577;52.122;5.406;2024-03-23T08:18:45;100945.03;;;19.65;55.08
71735;BME280;59577;52.122;5.406;2024-03-23T08:21:11;100943.25;;;20.40;53.63
71735;BME280;59577;52.122;5.406;2024-03-23T08:23:36;100944.34;;;18.33;53.82
71735;BME280;59577;52.122;5.406;2024-03-23T08:26:11;100954.22;;;16.55;57.88
71735;BME280;59577;52.122;5.406;2024-03-23T08:28:37;100962.03;;;16.35;57.66
71735;BME280;59577;52.122;5.406;2024-03-23T08:31:10;100960.25;;;15.70;60.10
71735;BME280;59577;52.122;5.406;2024-03-23T08:33:37;100951.03;;;16.10;61.06
71735;BME280;59577;52.122;5.406;2024-03-23T08:36:08;100951.09;;;16.64;60.05
71735;BME280;59577;52.122;5.406;2024-03-23T08:38:34;100948.69;;;16.09;58.78
71735;BME280;59577;52.122;5.406;2024-03-23T08:41:01;100953.09;;;14.84;61.50
71735;BME280;59577;52.122;5.406;2024-03-23T08:43:32;100945.59;;;14.26;63.24
71735;BME280;59577;52.122;5.406;2024-03-23T08:46:14;100964.59;;;13.54;65.48
71735;BME280;59577;52.122;5.406;2024-03-23T08:48:45;100957.25;;;14.64;65.93
71735;BME280;59577;52.122;5.406;2024-03-23T08:51:16;100953.03;;;16.35;62.95
71735;BME280;59577;52.122;5.406;2024-03-23T08:53:42;100947.59;;;16.57;62.90
71735;BME280;59577;52.122;5.406;2024-03-23T08:56:09;100954.13;;;17.49;59.51
71735;BME280;59577;52.122;5.406;2024-03-23T08:58:36;100947.03;;;18.40;54.32
71735;BME280;59577;52.122;5.406;2024-03-23T09:01:10;100949.69;;;18.51;53.88
71735;BME280;59577;52.122;5.406;2024-03-23T09:03:37;100933.47;;;19.16;55.29
71735;BME280;59577;52.122;5.406;2024-03-23T09:06:15;100933.78;;;20.41;52.19
71735;BME280;59577;52.122;5.406;2024-03-23T09:08:42;100942.47;;;21.31;50.70
71735;BME280;59577;52.122;5.406;2024-03-23T09:11:12;100944.94;;;21.45;48.05
71735;BME280;59577;52.122;5.406;2024-03-23T09:13:38;100944.31;;;21.37;45.67
71735;BME280;59577;52.122;5.406;2024-03-23T09:16:05;100951.09;;;20.89;46.61
71735;BME280;59577;52.122;5.406;2024-03-23T09:18:35;100937.34;;;19.19;51.94
71735;BME280;59577;52.122;5.406;2024-03-23T09:21:04;100950.31;;;17.07;54.53
71735;BME280;59577;52.122;5.406;2024-03-23T09:23:36;100947.72;;;15.61;59.89
71735;BME280;59577;52.122;5.406;2024-03-23T09:26:04;100953.00;;;14.70;63.98
71735;BME280;59577;52.122;5.406;2024-03-23T09:28:30;100951.31;;;14.14;63.25
71735;BME280;59577;52.122;5.406;2024-03-23T09:31:02;100941.59;;;13.48;64.96
71735;BME280;59577;52.122;5.406;2024-03-23T09:33:28;100941.38;;;13.07;66.76
71735;BME280;59577;52.122;5.406;2024-03-23T09:35:54;100945.53;;;12.74;67.52
71735;BME280;59577;52.122;5.406;2024-03-23T09:38:24;100946.28;;;12.48;68.50
71735;BME280;59577;52.122;5.406;2024-03-23T09:40:52;100948.44;;;12.39;69.27
71735;BME280;59577;52.122;5.406;2024-03-23T09:43:18;100956.91;;;12.14;71.74
71735;BME280;59577;52.122;5.406;2024-03-23T09:45:44;100961.63;;;11.78;73.61
71735;BME280;59577;52.122;5.406;2024-03-23T09:48:10;100964.84;;;11.13;79.07
71735;BME280;59577;52.122;5.406;2024-03-23T09:50:40;100954.31;;;10.60;77.92
71735;BME280;59577;52.122;5.406;2024-03-23T09:53:07;100948.66;;;10.21;77.22
71735;BME280;59577;52.122;5.406;2024-03-23T09:55:33;100946.50;;;9.98;78.73
71735;BME280;59577;52.122;5.406;2024-03-23T09:58:00;100943.25;;;10.21;80.75
71735;BME280;59577;52.122;5.406;2024-03-23T10:00:26;100940.56;;;11.72;86.13
71735;BME280;59577;52.122;5.406;2024-03-23T10:02:51;100941.31;;;13.30;84.06
71735;BME280;59577;52.122;5.406;2024-03-23T10:05:21;100932.41;;;14.73;79.87
71735;BME280;59577;52.122;5.406;2024-03-23T10:07:52;100926.66;;;15.55;72.34
71735;BME280;59577;52.122;5.406;2024-03-23T10:10:17;100929.03;;;15.71;70.74
71735;BME280;59577;52.122;5.406;2024-03-23T10:12:47;100920.13;;;15.77;67.69
71735;BME280;59577;52.122;5.406;2024-03-23T10:15:24;100924.50;;;16.07;68.99
71735;BME280;59577;52.122;5.406;2024-03-23T10:17:51;100926.81;;;15.87;67.58
71735;BME280;59577;52.122;5.406;2024-03-23T10:20:21;100914.59;;;15.56;67.22
71735;BME280;59577;52.122;5.406;2024-03-23T10:22:50;100921.13;;;15.33;71.32
71735;BME280;59577;52.122;5.406;2024-03-23T10:25:17;100930.97;;;14.41;67.60
71735;BME280;59577;52.122;5.406;2024-03-23T10:27:43;100927.31;;;13.55;70.55
71735;BME280;59577;52.122;5.406;2024-03-23T10:30:09;100934.50;;;13.70;71.04
71735;BME280;59577;52.122;5.406;2024-03-23T10:32:35;100929.28;;;13.92;73.81
71735;BME280;59577;52.122;5.406;2024-03-23T10:35:20;100921.97;;;14.41;69.41
71735;BME280;59577;52.122;5.406;2024-03-23T10:37:49;100928.16;;;14.34;67.85
71735;BME280;59577;52.122;5.406;2024-03-23T10:40:16;100929.13;;;14.15;70.35
71735;BME280;59577;52.122;5.406;2024-03-23T10:42:42;100926.53;;;14.26;72.21
71735;BME280;59577;52.122;5.406;2024-03-23T10:45:08;100945.50;;;14.19;72.83
71735;BME280;59577;52.122;5.406;2024-03-23T10:47:35;100921.16;;;14.33;72.65
71735;BME280;59577;52.122;5.406;2024-03-23T10:50:04;100926.94;;;13.90;71.84
71735;BME280;59577;52.122;5.406;2024-03-23T10:52:33;100941.22;;;13.23;69.91
71735;BME280;59577;52.122;5.406;2024-03-23T10:55:04;100956.97;;;12.18;76.53
71735;BME280;59577;52.122;5.406;2024-03-23T10:57:41;100943.38;;;11.40;78.67
71735;BME280;59577;52.122;5.406;2024-03-23T11:00:10;100947.91;;;11.16;78.85
71735;BME280;59577;52.122;5.406;2024-03-23T11:02:36;100937.06;;;11.00;79.08
71735;BME280;59577;52.122;5.406;2024-03-23T11:05:01;100937.72;;;10.78;78.81
71735;BME280;59577;52.122;5.406;2024-03-23T11:07:29;100926.09;;;11.28;80.67
71735;BME280;59577;52.122;5.406;2024-03-23T11:09:56;100931.78;;;12.40;79.00
71735;BME280;59577;52.122;5.406;2024-03-23T11:15:04;100927.59;;;13.46;76.89
71735;BME280;59577;52.122;5.406;2024-03-23T11:17:30;100905.56;;;14.30;77.94
71735;BME280;59577;52.122;5.406;2024-03-23T11:20:00;100906.91;;;14.51;70.72
71735;BME280;59577;52.122;5.406;2024-03-23T11:22:43;100912.91;;;13.88;69.15
71735;BME280;59577;52.122;5.406;2024-03-23T11:25:24;100924.00;;;13.12;74.44
71735;BME280;59577;52.122;5.406;2024-03-23T11:27:52;100935.44;;;12.75;74.55
71735;BME280;59577;52.122;5.406;2024-03-23T11:30:25;100923.69;;;12.67;75.72
71735;BME280;59577;52.122;5.406;2024-03-23T11:32:55;100918.03;;;13.60;79.50
71735;BME280;59577;52.122;5.406;2024-03-23T11:35:31;100933.06;;;14.18;75.48
71735;BME280;59577;52.122;5.406;2024-03-23T11:38:02;100910.19;;;14.26;76.00
71735;BME280;59577;52.122;5.406;2024-03-23T11:40:27;100906.91;;;14.09;75.30
71735;BME280;59577;52.122;5.406;2024-03-23T11:43:00;100904.31;;;14.65;75.73
71735;BME280;59577;52.122;5.406;2024-03-23T11:45:26;100902.38;;;14.65;76.20
71735;BME280;59577;52.122;5.406;2024-03-23T11:48:08;100900.84;;;14.68;71.81
71735;BME280;59577;52.122;5.406;2024-03-23T11:50:36;100893.38;;;15.20;66.65
71735;BME280;59577;52.122;5.406;2024-03-23T11:53:12;100890.06;;;15.70;64.45
71735;BME280;59577;52.122;5.406;2024-03-23T11:55:58;100889.94;;;15.38;66.48
71735;BME280;59577;52.122;5.406;2024-03-23T11:58:25;100904.22;;;14.13;68.73
71735;BME280;59577;52.122;5.406;2024-03-23T12:01:01;100898.22;;;13.29;70.15
71735;BME280;59577;52.122;5.406;2024-03-23T12:03:28;100899.16;;;12.87;69.81
71735;BME280;59577;52.122;5.406;2024-03-23T12:05:58;100905.97;;;13.00;72.12
71735;BME280;59577;52.122;5.406;2024-03-23T12:08:34;100901.72;;;13.03;76.55
71735;BME280;59577;52.122;5.406;2024-03-23T12:11:13;100894.19;;;12.66;74.91
71735;BME280;59577;52.122;5.406;2024-03-23T12:13:41;100904.28;;;12.19;74.63
71735;BME280;59577;52.122;5.406;2024-03-23T12:16:13;100897.25;;;11.75;74.03
71735;BME280;59577;52.122;5.406;2024-03-23T12:18:41;100894.16;;;11.38;75.63
71735;BME280;59577;52.122;5.406;2024-03-23T12:21:07;100893.53;;;11.44;76.78
71735;BME280;59577;52.122;5.406;2024-03-23T12:23:33;100888.94;;;11.88;80.61
71735;BME280;59577;52.122;5.406;2024-03-23T12:25:59;100874.47;;;12.22;72.94
71735;BME280;59577;52.122;5.406;2024-03-23T12:28:24;100876.66;;;12.36;75.06
71735;BME280;59577;52.122;5.406;2024-03-23T12:30:51;100868.16;;;12.38;74.64
71735;BME280;59577;52.122;5.406;2024-03-23T12:33:18;100873.72;;;12.02;73.60
71735;BME280;59577;52.122;5.406;2024-03-23T12:35:44;100867.75;;;11.93;74.43
71735;BME280;59577;52.122;5.406;2024-03-23T12:38:09;100873.88;;;11.90;71.49
71735;BME280;59577;52.122;5.406;2024-03-23T12:40:35;100889.91;;;11.56;76.71
71735;BME280;59577;52.122;5.406;2024-03-23T12:43:00;100866.72;;;11.39;78.20
71735;BME280;59577;52.122;5.406;2024-03-23T12:45:26;100866.19;;;11.14;70.61
71735;BME280;59577;52.122;5.406;2024-03-23T12:47:52;100863.38;;;11.26;71.01
71735;BME280;59577;52.122;5.406;2024-03-23T12:50:19;100867.91;;;11.22;74.64
71735;BME280;59577;52.122;5.406;2024-03-23T12:52:45;100881.22;;;11.12;70.57
71735;BME280;59577;52.122;5.406;2024-03-23T12:55:11;100866.84;;;11.07;75.37
71735;BME280;59577;52.122;5.406;2024-03-23T12:57:37;100870.94;;;11.56;74.68
71735;BME280;59577;52.122;5.406;2024-03-23T13:00:03;100859.53;;;11.90;72.78
71735;BME280;59577;52.122;5.406;2024-03-23T13:02:29;100859.56;;;12.13;77.12
71735;BME280;59577;52.122;5.406;2024-03-23T13:04:55;100862.28;;;12.59;72.44
71735;BME280;59577;52.122;5.406;2024-03-23T13:07:22;100865.03;;;12.63;75.35
71735;BME280;59577;52.122;5.406;2024-03-23T13:09:52;100874.38;;;12.15;81.86
71735;BME280;59577;52.122;5.406;2024-03-23T13:12:19;100869.19;;;11.67;nan
71735;BME280;59577;52.122;5.406;2024-03-23T13:14:46;100865.06;;;11.35;74.04
71735;BME280;59577;52.122;5.406;2024-03-23T13:17:12;100861.22;;;11.36;77.44
71735;BME280;59577;52.122;5.406;2024-03-23T13:19:41;100864.88;;;11.63;79.53
71735;BME280;59577;52.122;5.406;2024-03-23T13:22:06;100845.31;;;11.54;76.79
71735;BME280;59577;52.122;5.406;2024-03-23T13:24:32;100889.78;;;11.14;76.77
71735;BME280;59577;52.122;5.406;2024-03-23T13:26:58;100904.63;;;10.68;80.49
71735;BME280;59577;52.122;5.406;2024-03-23T13:29:24;100916.63;;;10.23;80.78
71735;BME280;59577;52.122;5.406;2024-03-23T13:31:51;100910.06;;;9.80;82.47
71735;BME280;59577;52.122;5.406;2024-03-23T13:34:17;100893.03;;;9.51;81.96
71735;BME280;59577;52.122;5.406;2024-03-23T13:36:46;100873.69;;;9.49;79.20
71735;BME280;59577;52.122;5.406;2024-03-23T13:39:13;100881.06;;;9.65;78.89
71735;BME280;59577;52.122;5.406;2024-03-23T13:41:43;100883.72;;;9.77;77.82
71735;BME280;59577;52.122;5.406;2024-03-23T13:44:10;100875.06;;;10.15;79.41
71735;BME280;59577;52.122;5.406;2024-03-23T13:46:36;100868.38;;;10.41;78.33